Time;durP1;ratioP1;P1;durP2;ratioP2;P2;SDS_P1;SDS_P2;PMS_P1;PMS_P2;Temp;Humidity;BMP_temperature;BMP_pressure;BME280_temperature;BME280_humidity;BME280_pressure;Samples;Min_cycle;Max_cycle;Signal;HPM_P1;HPM_P2
2022/07/05 00:02:05;;;;;;;8.07;6.05;;;;;;;;;;5019889;28;20463;-78
2022/07/05 00:04:30;;;;;;;9.13;6.60;;;;;;;;;;5035194;28;20504;-78
2022/07/05 00:09:40;;;;;;;7.40;5.40;;;;;;;;;;5052047;28;20017;-77
2022/07/05 00:12:05;;;;;;;8.88;5.22;;;;;;;;;;5033892;28;20430;-78
2022/07/05 00:14:31;;;;;;;7.20;5.00;;;;;;;;;;5029459;28;20098;-77
2022/07/05 00:16:56;;;;;;;9.00;5.20;;;;;;;;;;5033197;28;20031;-77
2022/07/05 00:19:21;;;;;;;7.55;5.47;;;;;;;;;;5032004;28;20095;-77
2022/07/05 00:21:47;;;;;;;7.60;6.00;;;;;;;;;;5033830;28;20448;-77
2022/07/05 00:24:12;;;;;;;8.10;5.50;;;;;;;;;;5014352;28;20041;-78
2022/07/05 00:26:37;;;;;;;8.13;5.28;;;;;;;;;;5012108;28;20029;-76
2022/07/05 00:29:03;;;;;;;9.77;5.40;;;;;;;;;;5018770;28;20068;-77
2022/07/05 00:31:28;;;;;;;7.68;6.03;;;;;;;;;;5033024;28;20525;-78
2022/07/05 00:33:53;;;;;;;12.10;6.18;;;;;;;;;;5034506;28;20056;-79
2022/07/05 00:36:19;;;;;;;9.48;6.13;;;;;;;;;;5050732;28;20044;-77
2022/07/05 00:38:44;;;;;;;8.18;5.88;;;;;;;;;;5016849;28;20059;-78
2022/07/05 00:41:10;;;;;;;9.65;6.00;;;;;;;;;;5049560;28;20043;-78
2022/07/05 00:43:35;;;;;;;8.85;5.40;;;;;;;;;;5032785;28;20053;-77
2022/07/05 00:46:00;;;;;;;9.63;5.97;;;;;;;;;;5051608;28;20056;-76
2022/07/05 00:48:26;;;;;;;11.38;7.75;;;;;;;;;;5016114;28;20093;-78
2022/07/05 00:50:51;;;;;;;10.38;7.05;;;;;;;;;;5021165;28;20112;-77
2022/07/05 00:53:17;;;;;;;9.88;6.18;;;;;;;;;;5017328;28;20023;-78
2022/07/05 00:55:43;;;;;;;8.15;6.35;;;;;;;;;;5018093;28;20029;-77
2022/07/05 00:58:08;;;;;;;9.23;6.63;;;;;;;;;;5032053;28;20048;-77
2022/07/05 01:00:34;;;;;;;10.18;7.03;;;;;;;;;;5050182;28;20045;-77
2022/07/05 01:02:59;;;;;;;11.77;7.40;;;;;;;;;;5049399;28;20600;-78
2022/07/05 01:05:24;;;;;;;12.48;6.80;;;;;;;;;;5017268;28;20143;-77
2022/07/05 01:07:50;;;;;;;7.65;6.45;;;;;;;;;;5034330;28;20156;-77
2022/07/05 01:10:15;;;;;;;11.52;7.43;;;;;;;;;;5013430;28;20025;-76
2022/07/05 01:12:40;;;;;;;8.63;6.75;;;;;;;;;;5015377;28;20120;-77
2022/07/05 01:15:06;;;;;;;10.10;7.95;;;;;;;;;;5038569;28;20048;-77
2022/07/05 01:17:33;;;;;;;10.13;7.25;;;;;;;;;;5022005;28;20029;-79
2022/07/05 01:19:59;;;;;;;9.68;6.63;;;;;;;;;;5053094;28;20017;-77
2022/07/05 01:22:26;;;;;;;12.20;7.30;;;;;;;;;;5054462;28;20072;-76
2022/07/05 01:24:52;;;;;;;10.57;8.38;;;;;;;;;;5021396;28;20469;-77
2022/07/05 01:27:19;;;;;;;11.85;8.95;;;;;;;;;;5002920;28;20432;-76
2022/07/05 01:29:44;;;;;;;11.32;8.65;;;;;;;;;;5020133;28;20017;-77
2022/07/05 01:32:10;;;;;;;10.85;7.93;;;;;;;;;;5051522;28;20507;-76
2022/07/05 01:34:39;;;;;;;12.75;8.30;;;;;;;;;;5038211;28;20119;-77
2022/07/05 01:37:04;;;;;;;11.93;8.82;;;;;;;;;;5046820;28;20036;-75
2022/07/05 01:39:30;;;;;;;10.93;7.90;;;;;;;;;;5036341;28;20017;-77
2022/07/05 01:41:55;;;;;;;12.07;8.88;;;;;;;;;;5037961;28;20123;-76
2022/07/05 01:44:20;;;;;;;13.65;8.20;;;;;;;;;;5037160;28;20448;-76
2022/07/05 01:46:46;;;;;;;11.90;7.93;;;;;;;;;;5035092;28;20152;-78
2022/07/05 01:49:13;;;;;;;10.98;8.40;;;;;;;;;;5036155;28;20067;-77
2022/07/05 01:51:49;;;;;;;13.90;8.52;;;;;;;;;;5021193;28;20017;-77
2022/07/05 01:54:14;;;;;;;10.85;9.20;;;;;;;;;;5045598;28;20036;-77
2022/07/05 01:56:40;;;;;;;12.82;8.60;;;;;;;;;;5020869;28;20033;-77
2022/07/05 01:59:06;;;;;;;12.40;8.68;;;;;;;;;;5036333;28;20065;-77
2022/07/05 02:01:35;;;;;;;11.63;9.05;;;;;;;;;;5035506;28;20514;-76
2022/07/05 02:04:01;;;;;;;14.50;8.77;;;;;;;;;;5036951;28;20568;-77
2022/07/05 02:06:26;;;;;;;9.85;7.70;;;;;;;;;;5038295;28;20096;-78
2022/07/05 02:08:52;;;;;;;14.18;9.80;;;;;;;;;;5017540;28;20022;-77
2022/07/05 02:11:17;;;;;;;12.15;9.15;;;;;;;;;;5036697;28;20037;-77
2022/07/05 02:13:42;;;;;;;10.85;8.10;;;;;;;;;;5037512;28;20143;-77
2022/07/05 02:16:08;;;;;;;12.15;8.35;;;;;;;;;;5052937;28;20393;-77
2022/07/05 02:18:33;;;;;;;10.98;7.50;;;;;;;;;;5054082;28;20060;-77
2022/07/05 02:20:58;;;;;;;16.42;8.73;;;;;;;;;;5036851;28;20493;-77
2022/07/05 02:23:24;;;;;;;10.18;8.38;;;;;;;;;;5052887;28;20059;-77
2022/07/05 02:25:49;;;;;;;11.82;8.48;;;;;;;;;;5035654;28;20147;-76
2022/07/05 02:28:14;;;;;;;14.10;11.07;;;;;;;;;;5053126;28;20064;-77
2022/07/05 02:30:40;;;;;;;15.82;12.10;;;;;;;;;;5033936;28;20064;-76
2022/07/05 02:33:05;;;;;;;14.30;10.98;;;;;;;;;;5019144;28;20079;-77
2022/07/05 02:35:31;;;;;;;19.58;13.07;;;;;;;;;;5031374;28;20558;-78
2022/07/05 02:37:56;;;;;;;20.88;12.70;;;;;;;;;;5035930;28;20119;-77
2022/07/05 02:40:21;;;;;;;17.45;11.80;;;;;;;;;;5035687;28;20056;-77
2022/07/05 02:42:47;;;;;;;18.13;11.77;;;;;;;;;;5036555;28;20045;-78
2022/07/05 02:45:12;;;;;;;15.68;11.52;;;;;;;;;;5037714;28;20575;-77
2022/07/05 02:47:38;;;;;;;16.05;12.68;;;;;;;;;;5036698;28;20036;-78
2022/07/05 02:50:12;;;;;;;13.00;11.25;;;;;;;;;;5018757;28;20056;-78
2022/07/05 02:52:38;;;;;;;19.10;12.63;;;;;;;;;;5037001;28;20040;-76
2022/07/05 02:55:04;;;;;;;20.20;13.95;;;;;;;;;;5038099;28;20025;-77
2022/07/05 02:57:30;;;;;;;18.25;13.48;;;;;;;;;;5037275;28;20402;-79
2022/07/05 02:59:55;;;;;;;16.52;11.98;;;;;;;;;;5053460;28;20041;-77
2022/07/05 03:02:21;;;;;;;17.65;12.10;;;;;;;;;;5037890;28;20029;-77
2022/07/05 03:04:46;;;;;;;14.80;12.00;;;;;;;;;;5017814;28;20025;-77
2022/07/05 03:07:12;;;;;;;23.90;13.48;;;;;;;;;;5031240;28;20478;-77
2022/07/05 03:09:37;;;;;;;14.55;11.93;;;;;;;;;;5014252;28;20060;-77
2022/07/05 03:12:03;;;;;;;18.33;13.23;;;;;;;;;;5051394;28;20124;-76
2022/07/05 03:14:28;;;;;;;17.73;12.85;;;;;;;;;;5018353;28;20032;-76
2022/07/05 03:16:54;;;;;;;19.88;13.60;;;;;;;;;;5052855;28;20052;-76
2022/07/05 03:19:19;;;;;;;17.88;12.45;;;;;;;;;;5033702;28;20582;-76
2022/07/05 03:21:45;;;;;;;18.25;14.38;;;;;;;;;;5053152;28;20079;-77
2022/07/05 03:24:10;;;;;;;18.60;14.90;;;;;;;;;;5035579;28;20106;-77
2022/07/05 03:26:35;;;;;;;19.08;14.57;;;;;;;;;;5018141;28;20472;-77
2022/07/05 03:29:01;;;;;;;21.33;16.23;;;;;;;;;;5032554;28;20032;-76
2022/07/05 03:31:26;;;;;;;20.23;16.00;;;;;;;;;;5035338;28;20100;-77
2022/07/05 03:33:51;;;;;;;16.05;13.90;;;;;;;;;;5016815;28;20433;-76
2022/07/05 03:36:17;;;;;;;20.85;14.45;;;;;;;;;;4999677;28;20048;-77
2022/07/05 03:38:42;;;;;;;20.92;13.05;;;;;;;;;;5034068;28;20043;-76
2022/07/05 03:41:08;;;;;;;17.95;13.95;;;;;;;;;;5032236;28;20079;-76
2022/07/05 03:43:33;;;;;;;20.85;15.40;;;;;;;;;;5017405;28;20036;-76
2022/07/05 03:45:59;;;;;;;21.58;16.73;;;;;;;;;;5014531;28;20048;-76
2022/07/05 03:48:24;;;;;;;23.92;17.30;;;;;;;;;;5031314;28;20064;-76
2022/07/05 03:50:49;;;;;;;23.88;17.48;;;;;;;;;;5042980;28;20108;-77
2022/07/05 03:53:15;;;;;;;25.55;18.17;;;;;;;;;;5017046;28;20119;-76
2022/07/05 03:55:40;;;;;;;22.80;16.27;;;;;;;;;;5031681;28;20063;-77
2022/07/05 03:58:06;;;;;;;26.77;17.02;;;;;;;;;;5046064;28;20565;-76
2022/07/05 04:00:32;;;;;;;26.88;19.02;;;;;;;;;;5028669;28;20045;-77
2022/07/05 04:02:57;;;;;;;22.33;17.77;;;;;;;;;;5030471;28;20029;-76
2022/07/05 04:05:22;;;;;;;24.05;18.40;;;;;;;;;;5029013;28;20116;-77
2022/07/05 04:07:55;;;;;;;22.30;17.63;;;;;;;;;;5028489;28;20638;-77
2022/07/05 04:10:20;;;;;;;27.05;19.48;;;;;;;;;;5030519;28;20497;-76
2022/07/05 04:12:46;;;;;;;25.85;18.73;;;;;;;;;;5029814;28;20033;-77
2022/07/05 04:15:11;;;;;;;24.35;19.20;;;;;;;;;;5027835;28;20036;-77
2022/07/05 04:17:56;;;;;;;21.77;18.55;;;;;;;;;;5044475;28;20033;-77
2022/07/05 04:20:21;;;;;;;22.23;19.17;;;;;;;;;;5027435;28;20021;-75
2022/07/05 04:22:47;;;;;;;23.27;18.98;;;;;;;;;;5027513;28;20032;-76
2022/07/05 04:25:19;;;;;;;27.65;19.95;;;;;;;;;;5043347;28;20560;-75
2022/07/05 04:27:54;;;;;;;24.42;17.92;;;;;;;;;;5046200;28;20029;-76
2022/07/05 04:30:20;;;;;;;21.02;16.65;;;;;;;;;;5035069;28;20025;-78
2022/07/05 04:32:45;;;;;;;17.80;14.77;;;;;;;;;;5019067;28;20020;-78
2022/07/05 04:35:11;;;;;;;15.90;14.30;;;;;;;;;;5015513;28;20465;-78
2022/07/05 04:37:36;;;;;;;17.20;12.45;;;;;;;;;;4998212;28;20029;-76
2022/07/05 04:40:06;;;;;;;15.60;12.20;;;;;;;;;;5032420;28;20025;-77
2022/07/05 04:42:31;;;;;;;14.55;12.68;;;;;;;;;;5032688;28;20048;-77
2022/07/05 04:44:57;;;;;;;17.15;12.68;;;;;;;;;;5032615;28;20024;-77
2022/07/05 04:47:22;;;;;;;13.70;11.43;;;;;;;;;;5001799;28;20040;-77
2022/07/05 04:49:47;;;;;;;15.45;12.30;;;;;;;;;;5020527;28;20028;-77
2022/07/05 04:52:13;;;;;;;13.02;11.05;;;;;;;;;;5038532;28;20071;-77
2022/07/05 04:54:38;;;;;;;17.17;11.35;;;;;;;;;;5048909;28;20031;-77
2022/07/05 04:57:04;;;;;;;15.65;12.38;;;;;;;;;;5054652;28;20059;-77
2022/07/05 04:59:29;;;;;;;14.27;10.65;;;;;;;;;;5037621;28;20041;-77
2022/07/05 05:01:55;;;;;;;12.27;10.95;;;;;;;;;;5037555;28;20044;-77
2022/07/05 05:04:20;;;;;;;12.13;10.05;;;;;;;;;;5037205;28;20320;-77
2022/07/05 05:06:45;;;;;;;12.18;9.73;;;;;;;;;;5034938;28;20025;-78
2022/07/05 05:09:11;;;;;;;13.45;10.05;;;;;;;;;;5054230;28;20060;-77
2022/07/05 05:11:36;;;;;;;10.45;8.68;;;;;;;;;;5037040;28;20115;-77
2022/07/05 05:14:01;;;;;;;14.60;9.10;;;;;;;;;;5036181;28;20071;-78
2022/07/05 05:16:27;;;;;;;14.43;9.77;;;;;;;;;;5037514;28;20044;-78
2022/07/05 05:18:52;;;;;;;14.38;8.88;;;;;;;;;;5020386;28;20056;-78
2022/07/05 05:21:18;;;;;;;16.65;8.77;;;;;;;;;;5018790;28;20033;-78
2022/07/05 05:23:43;;;;;;;12.20;8.82;;;;;;;;;;5054246;28;20025;-77
2022/07/05 05:26:08;;;;;;;14.45;8.38;;;;;;;;;;5017167;28;20069;-77
2022/07/05 05:28:34;;;;;;;13.70;8.32;;;;;;;;;;5036728;28;20103;-77
2022/07/05 05:30:59;;;;;;;11.75;8.30;;;;;;;;;;5013265;28;20366;-76
2022/07/05 05:33:24;;;;;;;12.93;8.90;;;;;;;;;;5037596;28;20515;-77
2022/07/05 05:35:50;;;;;;;11.30;7.93;;;;;;;;;;5054871;28;20140;-77
2022/07/05 05:38:15;;;;;;;15.00;8.05;;;;;;;;;;5021544;28;20415;-77
2022/07/05 05:40:42;;;;;;;11.75;8.32;;;;;;;;;;5028831;28;20122;-77
2022/07/05 05:43:07;;;;;;;12.63;7.93;;;;;;;;;;5037443;28;20500;-78
2022/07/05 05:45:32;;;;;;;9.10;7.00;;;;;;;;;;5035473;28;20120;-78
2022/07/05 05:47:58;;;;;;;16.10;7.85;;;;;;;;;;5042328;28;20368;-77
2022/07/05 05:50:24;;;;;;;10.05;7.38;;;;;;;;;;5049619;28;20032;-77
2022/07/05 05:52:50;;;;;;;8.65;7.13;;;;;;;;;;5052636;28;20045;-77
2022/07/05 05:55:15;;;;;;;9.20;7.18;;;;;;;;;;5036313;28;20033;-76
2022/07/05 05:57:41;;;;;;;13.20;7.40;;;;;;;;;;5052805;28;20045;-76
2022/07/05 06:00:07;;;;;;;10.77;7.03;;;;;;;;;;5035293;28;20044;-77
2022/07/05 06:02:32;;;;;;;11.75;7.43;;;;;;;;;;5020721;28;20031;-78
2022/07/05 06:04:58;;;;;;;11.23;7.22;;;;;;;;;;5036438;28;20107;-77
2022/07/05 06:07:23;;;;;;;9.55;6.20;;;;;;;;;;5033241;28;20589;-77
2022/07/05 06:09:48;;;;;;;10.30;5.75;;;;;;;;;;5016899;28;20022;-77
2022/07/05 06:12:14;;;;;;;9.35;6.57;;;;;;;;;;5036417;28;20519;-77
2022/07/05 06:14:39;;;;;;;10.60;6.70;;;;;;;;;;5018657;28;20074;-77
2022/07/05 06:17:05;;;;;;;11.15;6.20;;;;;;;;;;5052116;28;20111;-77
2022/07/05 06:19:30;;;;;;;8.85;5.15;;;;;;;;;;5051996;28;20055;-77
2022/07/05 06:21:55;;;;;;;9.32;4.97;;;;;;;;;;5034928;28;20070;-77
2022/07/05 06:24:21;;;;;;;13.18;5.32;;;;;;;;;;5035871;28;20037;-77
2022/07/05 06:26:46;;;;;;;7.07;4.25;;;;;;;;;;5052878;28;20070;-77
2022/07/05 06:29:11;;;;;;;16.40;4.78;;;;;;;;;;5018330;28;20067;-77
2022/07/05 06:31:37;;;;;;;7.63;3.80;;;;;;;;;;5015696;28;20504;-77
2022/07/05 06:34:02;;;;;;;7.80;3.15;;;;;;;;;;5032551;28;20048;-77
2022/07/05 06:36:28;;;;;;;7.65;4.25;;;;;;;;;;5019223;28;20052;-77
2022/07/05 06:38:53;;;;;;;13.95;2.97;;;;;;;;;;5035896;28;20063;-77
2022/07/05 06:41:18;;;;;;;8.65;3.33;;;;;;;;;;5035567;28;20059;-78
2022/07/05 06:43:44;;;;;;;5.85;3.00;;;;;;;;;;5052736;28;20102;-78
2022/07/05 06:46:09;;;;;;;8.13;2.92;;;;;;;;;;5002074;28;20063;-78
2022/07/05 06:48:35;;;;;;;4.75;2.28;;;;;;;;;;5034986;28;20064;-77
2022/07/05 06:51:00;;;;;;;6.53;2.10;;;;;;;;;;5015175;28;20548;-77
2022/07/05 06:53:26;;;;;;;7.18;2.03;;;;;;;;;;5034340;28;20029;-76
2022/07/05 06:55:51;;;;;;;4.38;1.80;;;;;;;;;;5035793;28;20116;-76
2022/07/05 06:58:17;;;;;;;3.35;1.73;;;;;;;;;;5014543;28;20433;-77
2022/07/05 07:00:42;;;;;;;5.28;1.70;;;;;;;;;;5051164;28;20041;-77
2022/07/05 07:03:08;;;;;;;7.53;1.65;;;;;;;;;;5035048;28;20553;-77
2022/07/05 07:05:36;;;;;;;4.10;1.65;;;;;;;;;;5039537;28;20065;-77
2022/07/05 07:10:45;;;;;;;6.03;1.65;;;;;;;;;;5037182;28;20024;-77
2022/07/05 07:13:11;;;;;;;4.10;1.40;;;;;;;;;;5051342;28;20109;-77
2022/07/05 07:15:37;;;;;;;4.82;1.67;;;;;;;;;;5034910;28;20021;-77
2022/07/05 07:18:03;;;;;;;5.97;1.48;;;;;;;;;;5015376;28;20047;-77
2022/07/05 07:20:28;;;;;;;3.85;1.40;;;;;;;;;;5034251;28;20032;-77
2022/07/05 07:22:54;;;;;;;5.85;1.92;;;;;;;;;;5018733;28;20380;-77
2022/07/05 07:25:20;;;;;;;8.60;1.80;;;;;;;;;;5018040;28;20078;-77
2022/07/05 07:27:46;;;;;;;6.72;1.50;;;;;;;;;;5035500;28;20152;-77
2022/07/05 07:30:13;;;;;;;9.70;1.38;;;;;;;;;;5015031;28;20064;-77
2022/07/05 07:32:38;;;;;;;7.40;1.13;;;;;;;;;;5034712;28;20028;-77
2022/07/05 07:35:04;;;;;;;7.78;1.80;;;;;;;;;;5051914;28;20036;-77
2022/07/05 07:37:30;;;;;;;5.47;1.67;;;;;;;;;;5034713;28;20026;-77
2022/07/05 07:39:55;;;;;;;3.15;1.10;;;;;;;;;;5049633;28;20248;-77
2022/07/05 07:42:20;;;;;;;10.45;1.63;;;;;;;;;;5035158;28;20128;-76
2022/07/05 07:44:46;;;;;;;2.95;1.15;;;;;;;;;;5052206;28;20120;-77
2022/07/05 07:47:11;;;;;;;6.18;1.25;;;;;;;;;;5051685;28;20115;-76
2022/07/05 07:49:37;;;;;;;5.65;1.23;;;;;;;;;;5036136;28;20052;-77
2022/07/05 07:52:03;;;;;;;6.30;1.58;;;;;;;;;;5050581;28;20064;-76
2022/07/05 07:54:28;;;;;;;4.47;1.63;;;;;;;;;;5017693;28;20032;-76
2022/07/05 07:56:54;;;;;;;3.95;1.42;;;;;;;;;;5018134;28;20534;-76
2022/07/05 07:59:19;;;;;;;6.80;1.20;;;;;;;;;;5017677;28;20060;-77
2022/07/05 08:01:44;;;;;;;4.72;1.30;;;;;;;;;;5034187;28;20040;-78
2022/07/05 08:04:11;;;;;;;3.63;1.20;;;;;;;;;;5034356;28;20136;-77
2022/07/05 08:06:36;;;;;;;4.03;1.40;;;;;;;;;;5016554;28;20029;-77
2022/07/05 08:09:02;;;;;;;7.32;1.15;;;;;;;;;;5016746;28;20125;-76
2022/07/05 08:11:27;;;;;;;3.50;1.42;;;;;;;;;;5051348;28;20036;-77
2022/07/05 08:13:53;;;;;;;3.92;1.80;;;;;;;;;;5042570;28;20033;-77
2022/07/05 08:16:18;;;;;;;4.82;1.90;;;;;;;;;;5051272;28;20466;-77
2022/07/05 08:21:39;;;;;;;5.13;1.90;;;;;;;;;;5043497;28;20108;-77
2022/07/05 08:24:07;;;;;;;5.90;2.13;;;;;;;;;;5036119;28;20040;-77
2022/07/05 08:26:32;;;;;;;4.50;1.80;;;;;;;;;;5050286;28;20035;-77
2022/07/05 08:28:59;;;;;;;11.70;2.38;;;;;;;;;;5032535;28;20053;-77
2022/07/05 08:31:25;;;;;;;12.18;2.00;;;;;;;;;;5033626;28;20041;-77
2022/07/05 08:33:50;;;;;;;5.28;1.70;;;;;;;;;;5014173;28;20041;-77
2022/07/05 08:36:16;;;;;;;7.68;1.88;;;;;;;;;;5030948;28;20037;-77
2022/07/05 08:38:41;;;;;;;7.57;1.92;;;;;;;;;;5017424;28;20400;-77
2022/07/05 08:41:07;;;;;;;7.25;2.25;;;;;;;;;;5034226;28;20036;-77
2022/07/05 08:43:33;;;;;;;4.78;1.98;;;;;;;;;;5015878;28;20116;-76
2022/07/05 08:45:58;;;;;;;7.82;2.00;;;;;;;;;;5033139;28;20104;-77
2022/07/05 08:48:23;;;;;;;7.97;2.53;;;;;;;;;;5050152;28;20029;-77
2022/07/05 08:50:50;;;;;;;6.70;2.00;;;;;;;;;;5033306;28;20465;-77
2022/07/05 08:53:17;;;;;;;4.25;1.60;;;;;;;;;;5017677;28;20055;-76
2022/07/05 08:55:43;;;;;;;4.63;1.23;;;;;;;;;;5042588;28;20037;-77
2022/07/05 08:58:08;;;;;;;4.72;1.40;;;;;;;;;;5033237;28;20052;-77
2022/07/05 09:00:36;;;;;;;5.13;1.45;;;;;;;;;;5032785;28;20075;-76
2022/07/05 09:03:01;;;;;;;5.15;1.48;;;;;;;;;;5033569;28;20545;-78
2022/07/05 09:05:26;;;;;;;8.48;1.90;;;;;;;;;;5033185;28;20033;-77
2022/07/05 09:07:58;;;;;;;7.68;1.60;;;;;;;;;;5033452;28;20063;-77
2022/07/05 09:10:28;;;;;;;3.85;1.25;;;;;;;;;;5049595;28;20060;-77
2022/07/05 09:12:54;;;;;;;3.53;1.30;;;;;;;;;;5033869;28;20085;-77
2022/07/05 09:15:20;;;;;;;5.25;1.90;;;;;;;;;;5034157;28;20025;-77
2022/07/05 09:17:45;;;;;;;2.80;1.10;;;;;;;;;;5031168;28;20060;-77
2022/07/05 09:20:12;;;;;;;5.60;1.23;;;;;;;;;;5000209;28;20115;-77
2022/07/05 09:22:59;;;;;;;7.75;2.10;;;;;;;;;;5015384;28;20142;-78
2022/07/05 09:25:29;;;;;;;12.43;2.53;;;;;;;;;;5035368;28;20035;-78
2022/07/05 09:28:05;;;;;;;4.55;1.50;;;;;;;;;;5008484;28;20047;-77
2022/07/05 09:30:41;;;;;;;9.60;1.77;;;;;;;;;;5034199;28;20368;-77
2022/07/05 09:33:15;;;;;;;11.77;2.00;;;;;;;;;;5033413;28;20104;-77
2022/07/05 09:35:43;;;;;;;3.20;1.20;;;;;;;;;;5053086;28;20099;-77
2022/07/05 09:38:20;;;;;;;4.97;1.52;;;;;;;;;;5020905;28;20040;-77
2022/07/05 09:40:47;;;;;;;5.80;1.38;;;;;;;;;;5018094;28;20088;-77
2022/07/05 09:43:14;;;;;;;6.68;2.30;;;;;;;;;;5037208;28;20081;-77
2022/07/05 09:45:40;;;;;;;5.32;1.42;;;;;;;;;;5004094;28;20029;-77
2022/07/05 09:48:08;;;;;;;6.38;1.48;;;;;;;;;;5036352;28;20140;-77
2022/07/05 09:50:34;;;;;;;5.57;1.70;;;;;;;;;;5019752;28;20025;-77
2022/07/05 09:53:00;;;;;;;6.28;1.40;;;;;;;;;;5016331;28;20107;-77
2022/07/05 09:55:25;;;;;;;5.72;1.65;;;;;;;;;;5017652;28;20025;-77
2022/07/05 09:57:50;;;;;;;7.78;1.70;;;;;;;;;;5032302;28;20049;-78
2022/07/05 10:00:20;;;;;;;7.00;2.38;;;;;;;;;;5036313;28;20040;-77
2022/07/05 10:02:50;;;;;;;15.95;1.95;;;;;;;;;;5005023;28;20049;-78
2022/07/05 10:05:22;;;;;;;5.53;1.63;;;;;;;;;;5020345;28;20025;-77
2022/07/05 10:07:51;;;;;;;5.43;1.40;;;;;;;;;;5035483;28;20225;-78
2022/07/05 10:10:18;;;;;;;6.88;1.48;;;;;;;;;;5069859;28;20021;-76
2022/07/05 10:12:44;;;;;;;8.80;1.67;;;;;;;;;;5054491;28;20681;-77
2022/07/05 10:15:12;;;;;;;7.70;1.60;;;;;;;;;;5035824;28;20032;-78
2022/07/05 10:17:40;;;;;;;8.38;2.03;;;;;;;;;;5020764;28;20405;-77
2022/07/05 10:20:11;;;;;;;4.53;1.67;;;;;;;;;;5019378;28;20051;-77
2022/07/05 10:22:36;;;;;;;4.40;1.30;;;;;;;;;;5020267;28;20033;-77
2022/07/05 10:25:02;;;;;;;4.90;1.55;;;;;;;;;;5034571;28;20420;-77
2022/07/05 10:27:27;;;;;;;5.80;1.30;;;;;;;;;;5026589;28;20033;-77
2022/07/05 10:29:53;;;;;;;3.45;0.90;;;;;;;;;;5018785;28;20025;-77
2022/07/05 10:32:19;;;;;;;7.55;1.60;;;;;;;;;;5036430;28;20114;-77
2022/07/05 10:34:46;;;;;;;3.67;1.00;;;;;;;;;;5019082;28;20068;-77
2022/07/05 10:37:11;;;;;;;5.45;1.27;;;;;;;;;;5036675;28;20021;-77
2022/07/05 10:39:37;;;;;;;6.13;1.30;;;;;;;;;;5019758;28;20048;-77
2022/07/05 10:42:02;;;;;;;5.22;1.10;;;;;;;;;;5016987;28;20429;-77
2022/07/05 10:44:31;;;;;;;6.72;1.48;;;;;;;;;;5002781;28;20029;-77
2022/07/05 10:47:12;;;;;;;9.02;1.40;;;;;;;;;;5050832;28;20032;-77
2022/07/05 10:49:38;;;;;;;6.03;1.52;;;;;;;;;;5026968;28;20025;-78
2022/07/05 10:52:04;;;;;;;12.52;1.60;;;;;;;;;;5052176;28;20025;-77
2022/07/05 10:54:31;;;;;;;5.55;1.52;;;;;;;;;;4999271;28;20048;-77
2022/07/05 10:57:23;;;;;;;4.28;1.20;;;;;;;;;;5001863;28;20511;-77
2022/07/05 11:00:07;;;;;;;7.35;1.20;;;;;;;;;;5036004;28;20175;-77
2022/07/05 11:02:33;;;;;;;5.88;1.52;;;;;;;;;;5046263;28;20029;-77
2022/07/05 11:04:58;;;;;;;8.45;1.45;;;;;;;;;;5019271;28;20032;-76
2022/07/05 11:07:58;;;;;;;6.90;1.83;;;;;;;;;;5036602;28;20060;-77
2022/07/05 11:10:24;;;;;;;8.95;1.73;;;;;;;;;;5043974;28;20135;-77
2022/07/05 11:12:51;;;;;;;6.65;1.45;;;;;;;;;;5054167;28;20036;-77
2022/07/05 11:15:17;;;;;;;7.68;1.70;;;;;;;;;;5018561;28;20433;-77
2022/07/05 11:17:42;;;;;;;6.53;1.48;;;;;;;;;;5034103;28;20102;-77
2022/07/05 11:20:26;;;;;;;6.10;1.75;;;;;;;;;;5035860;28;20137;-77
2022/07/05 11:23:11;;;;;;;3.47;1.55;;;;;;;;;;5052427;28;20048;-77
2022/07/05 11:25:41;;;;;;;4.53;1.30;;;;;;;;;;5027741;28;20392;-77
2022/07/05 11:28:12;;;;;;;4.70;1.50;;;;;;;;;;5015768;28;20021;-76
2022/07/05 11:30:47;;;;;;;4.47;1.40;;;;;;;;;;5051770;28;20442;-76
2022/07/05 11:33:26;;;;;;;9.65;1.70;;;;;;;;;;5033340;28;20033;-77
2022/07/05 11:35:51;;;;;;;6.38;1.55;;;;;;;;;;5053116;28;20033;-77
2022/07/05 11:38:17;;;;;;;7.43;1.98;;;;;;;;;;5051082;28;20049;-77
2022/07/05 11:40:42;;;;;;;5.10;1.70;;;;;;;;;;5018861;28;20021;-78
2022/07/05 11:43:09;;;;;;;7.45;1.35;;;;;;;;;;5051677;28;20052;-77
2022/07/05 11:45:34;;;;;;;3.92;1.30;;;;;;;;;;5014792;28;20026;-77
2022/07/05 11:47:59;;;;;;;8.77;1.40;;;;;;;;;;5009645;28;20447;-77
2022/07/05 11:50:33;;;;;;;3.83;1.27;;;;;;;;;;5035037;28;20057;-77
2022/07/05 11:52:59;;;;;;;5.53;1.23;;;;;;;;;;5031515;28;20473;-77
2022/07/05 11:55:26;;;;;;;7.57;1.27;;;;;;;;;;5033205;28;20530;-77
2022/07/05 11:57:52;;;;;;;4.15;1.40;;;;;;;;;;5035029;28;20560;-77
2022/07/05 12:00:36;;;;;;;3.95;1.35;;;;;;;;;;5017495;28;20069;-77
2022/07/05 12:03:09;;;;;;;7.93;1.60;;;;;;;;;;5030930;28;20048;-77
2022/07/05 12:05:35;;;;;;;4.32;1.50;;;;;;;;;;5034952;28;20032;-77
2022/07/05 12:08:00;;;;;;;5.10;1.05;;;;;;;;;;5034720;28;20515;-77
2022/07/05 12:13:10;;;;;;;5.32;1.23;;;;;;;;;;5030544;28;20024;-77
2022/07/05 12:15:36;;;;;;;2.92;1.10;;;;;;;;;;5033414;28;20033;-77
2022/07/05 12:18:03;;;;;;;6.25;1.42;;;;;;;;;;5020062;28;20075;-77
2022/07/05 12:20:28;;;;;;;7.47;1.20;;;;;;;;;;5035209;28;20520;-77
2022/07/05 12:22:54;;;;;;;5.82;1.42;;;;;;;;;;5019632;28;20056;-77
2022/07/05 12:25:20;;;;;;;3.28;1.00;;;;;;;;;;5035252;28;20036;-77
2022/07/05 12:27:47;;;;;;;7.30;1.23;;;;;;;;;;5033908;28;20037;-77
2022/07/05 12:30:12;;;;;;;4.57;1.30;;;;;;;;;;5033651;28;20035;-77
2022/07/05 12:33:04;;;;;;;5.70;1.48;;;;;;;;;;5050717;28;20345;-77
2022/07/05 12:35:43;;;;;;;8.32;1.30;;;;;;;;;;5017047;28;20107;-77
2022/07/05 12:38:14;;;;;;;3.50;1.15;;;;;;;;;;5049601;28;20035;-77
2022/07/05 12:40:41;;;;;;;4.05;1.20;;;;;;;;;;5032495;28;20036;-77
2022/07/05 12:43:11;;;;;;;5.97;2.05;;;;;;;;;;5034920;28;20037;-77
2022/07/05 12:45:37;;;;;;;3.42;0.98;;;;;;;;;;5051235;28;20033;-77
2022/07/05 12:48:04;;;;;;;3.40;0.90;;;;;;;;;;5013967;28;20049;-77
2022/07/05 12:50:51;;;;;;;5.55;1.40;;;;;;;;;;5051047;28;20028;-77
2022/07/05 12:58:55;;;;;;;2.90;0.75;;;;;;;;;;5024239;28;20049;-76
2022/07/05 13:01:25;;;;;;;4.97;0.73;;;;;;;;;;5034379;28;20094;-76
2022/07/05 13:04:03;;;;;;;4.88;0.90;;;;;;;;;;5050082;28;20037;-76
2022/07/05 13:06:56;;;;;;;4.38;0.85;;;;;;;;;;5052372;28;20067;-77
2022/07/05 13:09:28;;;;;;;3.90;0.98;;;;;;;;;;5040282;28;20497;-76
2022/07/05 13:12:11;;;;;;;6.93;1.10;;;;;;;;;;5054518;28;20025;-76
2022/07/05 13:14:53;;;;;;;4.45;1.13;;;;;;;;;;5072435;28;20036;-77
2022/07/05 13:17:20;;;;;;;3.75;1.25;;;;;;;;;;5022224;28;20520;-76
2022/07/05 13:19:46;;;;;;;3.63;0.93;;;;;;;;;;5038170;28;20028;-77
2022/07/05 13:22:11;;;;;;;4.38;0.80;;;;;;;;;;5037854;28;20025;-77
2022/07/05 13:24:37;;;;;;;3.00;1.02;;;;;;;;;;5017657;28;20033;-78
2022/07/05 13:27:02;;;;;;;7.28;0.98;;;;;;;;;;5037164;28;20354;-77
2022/07/05 13:29:28;;;;;;;5.95;0.85;;;;;;;;;;5036965;28;20134;-77
2022/07/05 13:31:53;;;;;;;5.55;0.85;;;;;;;;;;5047053;28;20024;-77
2022/07/05 13:34:19;;;;;;;2.50;0.73;;;;;;;;;;5037919;28;20095;-77
2022/07/05 13:36:44;;;;;;;5.18;1.08;;;;;;;;;;5037921;28;20049;-77
2022/07/05 13:39:10;;;;;;;5.53;0.88;;;;;;;;;;5035042;28;20029;-77
2022/07/05 13:41:36;;;;;;;5.40;0.90;;;;;;;;;;5037934;28;20024;-77
2022/07/05 13:44:01;;;;;;;4.30;0.90;;;;;;;;;;5052479;28;20029;-76
2022/07/05 13:46:27;;;;;;;3.80;1.08;;;;;;;;;;5054095;28;20121;-77
2022/07/05 13:48:52;;;;;;;6.38;1.38;;;;;;;;;;5053232;28;20492;-76
2022/07/05 13:51:18;;;;;;;2.38;0.77;;;;;;;;;;5037089;28;20067;-77
2022/07/05 13:53:43;;;;;;;4.35;0.90;;;;;;;;;;5037462;28;20540;-76
2022/07/05 13:56:08;;;;;;;5.15;0.77;;;;;;;;;;5020325;28;20131;-78
2022/07/05 13:58:34;;;;;;;2.63;0.80;;;;;;;;;;5036478;28;20053;-76
2022/07/05 14:01:00;;;;;;;6.68;1.05;;;;;;;;;;5018019;28;20490;-77
2022/07/05 14:03:25;;;;;;;5.32;0.80;;;;;;;;;;5037314;28;20033;-76
2022/07/05 14:05:51;;;;;;;3.58;0.80;;;;;;;;;;5020336;28;20599;-77
2022/07/05 14:08:21;;;;;;;4.45;1.13;;;;;;;;;;5018772;28;20057;-77
2022/07/05 14:10:50;;;;;;;4.15;1.08;;;;;;;;;;5017826;28;20005;-77
2022/07/05 14:13:15;;;;;;;4.82;0.93;;;;;;;;;;5035125;28;20021;-77
2022/07/05 14:15:41;;;;;;;7.80;1.00;;;;;;;;;;5035318;28;20437;-77
2022/07/05 14:18:06;;;;;;;6.85;0.90;;;;;;;;;;5038505;28;20076;-77
2022/07/05 14:20:32;;;;;;;3.70;0.80;;;;;;;;;;5032868;28;20026;-77
2022/07/05 14:22:57;;;;;;;5.22;1.27;;;;;;;;;;5048668;28;20060;-77
2022/07/05 14:25:22;;;;;;;4.75;1.40;;;;;;;;;;5036880;28;20048;-77
2022/07/05 14:27:48;;;;;;;5.03;1.02;;;;;;;;;;5053318;28;20025;-77
2022/07/05 14:30:13;;;;;;;3.88;0.82;;;;;;;;;;5052516;28;20459;-77
2022/07/05 14:32:38;;;;;;;4.25;1.20;;;;;;;;;;5020896;28;20067;-77
2022/07/05 14:35:04;;;;;;;5.50;1.15;;;;;;;;;;5036478;28;20063;-77
2022/07/05 14:37:30;;;;;;;2.42;0.60;;;;;;;;;;5029746;28;20060;-77
2022/07/05 14:39:59;;;;;;;3.78;1.10;;;;;;;;;;5054070;28;20540;-77
2022/07/05 14:42:24;;;;;;;2.47;0.80;;;;;;;;;;5021431;28;20024;-77
2022/07/05 14:44:50;;;;;;;3.47;0.90;;;;;;;;;;5037092;28;20033;-77
2022/07/05 14:47:15;;;;;;;3.92;0.77;;;;;;;;;;5051811;28;20071;-77
2022/07/05 14:49:41;;;;;;;2.47;1.00;;;;;;;;;;5003648;28;20017;-77
2022/07/05 14:52:08;;;;;;;4.00;0.95;;;;;;;;;;5016256;28;20040;-77